Time;durP1;ratioP1;P1;durP2;ratioP2;P2;SDS_P1;SDS_P2;PMS_P1;PMS_P2;Temp;Humidity;BMP_temperature;BMP_pressure;BME280_temperature;BME280_humidity;BME280_pressure;Samples;Min_cycle;Max_cycle;Signal;HPM_P1;HPM_P2
2022/04/19 00:00:32;;;;;;;4.55;3.28;;;10.00;55.30;;;;;;2331730;57;21126;-79
2022/04/19 00:03:02;;;;;;;7.87;3.25;;;10.00;55.50;;;;;;2331687;57;21611;-78
2022/04/19 00:05:30;;;;;;;4.35;2.78;;;9.90;55.40;;;;;;2331374;57;21055;-78
2022/04/19 00:07:57;;;;;;;5.12;3.58;;;9.90;55.60;;;;;;2331862;57;21579;-78
2022/04/19 00:10:28;;;;;;;4.93;3.03;;;9.90;55.50;;;;;;2331857;57;21634;-78
2022/04/19 00:12:56;;;;;;;7.87;3.30;;;9.80;55.60;;;;;;2331307;57;21122;-79
2022/04/19 00:15:24;;;;;;;5.62;3.47;;;9.80;55.50;;;;;;2331018;57;21042;-79
2022/04/19 00:17:51;;;;;;;4.80;3.05;;;9.80;55.60;;;;;;2331593;57;21063;-79
2022/04/19 00:20:19;;;;;;;8.25;3.42;;;9.80;55.80;;;;;;2331664;57;21623;-79
2022/04/19 00:22:47;;;;;;;5.32;3.00;;;9.70;55.80;;;;;;2331958;57;21062;-78
2022/04/19 00:25:15;;;;;;;7.12;4.50;;;9.70;56.60;;;;;;2331460;57;21047;-79
2022/04/19 00:27:42;;;;;;;7.37;3.75;;;9.60;56.30;;;;;;2575255;53;21091;-78
2022/04/19 00:30:12;;;;;;;6.07;3.42;;;9.60;56.70;;;;;;2574973;53;21074;-77
2022/04/19 00:32:40;;;;;;;6.93;3.85;;;9.60;56.90;;;;;;2576307;53;21641;-78
2022/04/19 00:35:10;;;;;;;6.15;3.72;;;9.50;57.10;;;;;;2575617;53;21705;-78
2022/04/19 00:37:39;;;;;;;6.18;3.87;;;9.50;57.30;;;;;;2575492;53;21058;-79
2022/04/19 00:40:09;;;;;;;5.05;3.40;;;9.50;57.20;;;;;;2575667;53;21051;-79
2022/04/19 00:42:37;;;;;;;4.68;3.30;;;9.40;57.20;;;;;;2331367;57;22082;-78
2022/04/19 00:45:07;;;;;;;5.00;3.50;;;9.40;57.80;;;;;;2331273;57;21071;-79
2022/04/19 00:47:38;;;;;;;5.28;3.45;;;9.40;57.20;;;;;;2575380;53;21118;-79
2022/04/19 00:50:08;;;;;;;5.60;3.60;;;9.40;57.10;;;;;;2331314;57;21123;-78
2022/04/19 00:52:37;;;;;;;4.90;3.70;;;9.30;57.10;;;;;;2331447;57;21059;-79
2022/04/19 00:55:08;;;;;;;5.20;3.70;;;9.40;57.20;;;;;;2331442;57;22211;-78
2022/04/19 00:57:37;;;;;;;5.57;4.10;;;9.30;57.00;;;;;;2331583;57;21119;-79
2022/04/19 01:00:08;;;;;;;5.15;4.18;;;9.30;57.00;;;;;;2331148;57;21535;-79
2022/04/19 01:02:37;;;;;;;7.07;4.43;;;9.20;56.80;;;;;;2575396;53;21194;-79
2022/04/19 01:05:05;;;;;;;6.87;4.40;;;9.20;56.80;;;;;;2331403;57;21046;-79
2022/04/19 01:07:34;;;;;;;5.95;4.35;;;9.20;56.70;;;;;;2331259;57;21527;-78
2022/04/19 01:10:03;;;;;;;6.25;4.30;;;9.20;56.90;;;;;;2575284;53;21594;-77
2022/04/19 01:15:17;;;;;;;7.20;4.60;;;9.10;57.40;;;;;;2331059;57;21579;-80
2022/04/19 01:17:46;;;;;;;10.25;6.22;;;9.10;57.50;;;;;;2575601;53;21063;-79
2022/04/19 01:20:13;;;;;;;12.15;6.18;;;9.10;57.40;;;;;;2331676;57;21555;-79
2022/04/19 01:22:42;;;;;;;9.27;5.18;;;9.10;57.50;;;;;;2575111;53;21063;-79
2022/04/19 01:25:11;;;;;;;13.73;7.82;;;9.00;57.80;;;;;;2331484;57;21638;-79
2022/04/19 01:27:38;;;;;;;13.98;8.18;;;9.00;58.10;;;;;;2574752;53;21090;-78
2022/04/19 01:30:08;;;;;;;12.45;8.05;;;9.00;58.30;;;;;;2331540;57;21051;-79
2022/04/19 01:32:36;;;;;;;12.55;8.45;;;9.00;58.80;;;;;;2575373;53;21055;-79
2022/04/19 01:35:10;;;;;;;13.20;8.10;;;8.90;59.40;;;;;;2331873;57;21134;-77
2022/04/19 01:37:39;;;;;;;14.85;9.00;;;8.90;60.30;;;;;;2331580;57;21063;-80
2022/04/19 01:40:17;;;;;;;15.10;8.32;;;8.80;60.70;;;;;;2331955;57;21627;-79
2022/04/19 01:42:46;;;;;;;14.73;8.13;;;8.80;61.20;;;;;;2575849;53;21048;-78
2022/04/19 01:45:15;;;;;;;16.83;9.35;;;8.80;61.70;;;;;;2331807;57;21066;-78
2022/04/19 01:47:43;;;;;;;15.10;9.00;;;8.70;62.00;;;;;;2574603;53;21119;-77
2022/04/19 01:50:12;;;;;;;14.70;9.20;;;8.70;62.00;;;;;;2331899;57;21585;-79
2022/04/19 01:52:41;;;;;;;13.35;7.97;;;8.70;61.90;;;;;;2575858;53;21122;-77
2022/04/19 01:55:13;;;;;;;12.13;7.80;;;8.70;61.80;;;;;;2331813;57;21106;-79
2022/04/19 01:57:41;;;;;;;17.08;9.82;;;8.70;61.80;;;;;;2331645;57;21598;-79
2022/04/19 02:00:11;;;;;;;14.68;8.15;;;8.70;61.70;;;;;;2331897;57;21133;-79
2022/04/19 02:05:17;;;;;;;15.95;8.88;;;8.70;60.90;;;;;;2355287;57;22573;-74
2022/04/19 02:07:46;;;;;;;17.70;9.00;;;8.70;60.70;;;;;;2561995;54;21059;-73
2022/04/19 02:10:15;;;;;;;14.35;8.55;;;8.70;60.30;;;;;;2321298;58;21063;-74
2022/04/19 02:12:43;;;;;;;11.80;7.05;;;8.70;60.10;;;;;;2320575;58;21103;-74
2022/04/19 02:15:14;;;;;;;16.62;9.45;;;8.70;59.90;;;;;;2320976;58;21063;-73
2022/04/19 02:17:46;;;;;;;16.83;8.38;;;8.70;59.60;;;;;;2320292;58;21056;-74
2022/04/19 02:20:16;;;;;;;12.13;7.20;;;8.70;59.60;;;;;;2319934;58;21675;-76
2022/04/19 02:22:44;;;;;;;13.88;8.90;;;8.60;59.70;;;;;;2320448;58;21302;-75
2022/04/19 02:25:13;;;;;;;17.23;9.70;;;8.60;59.80;;;;;;2561492;53;21056;-75
2022/04/19 02:27:42;;;;;;;15.15;8.70;;;8.60;59.60;;;;;;2319976;58;21064;-75
2022/04/19 02:30:14;;;;;;;16.27;8.63;;;8.60;59.30;;;;;;2320739;58;21051;-76
2022/04/19 02:32:43;;;;;;;11.90;8.75;;;8.60;59.30;;;;;;2320678;58;21059;-76
2022/04/19 02:35:11;;;;;;;14.05;8.30;;;8.60;59.30;;;;;;2320876;58;21052;-76
2022/04/19 02:37:39;;;;;;;13.75;7.70;;;8.50;59.40;;;;;;2319991;58;21550;-75
2022/04/19 02:40:09;;;;;;;11.60;7.43;;;8.50;59.70;;;;;;2320785;58;21562;-76
2022/04/19 02:42:37;;;;;;;14.00;8.13;;;8.40;60.00;;;;;;2319903;58;21523;-75
2022/04/19 02:45:07;;;;;;;13.60;7.97;;;8.40;60.10;;;;;;2320435;58;21582;-76
2022/04/19 02:47:34;;;;;;;16.85;8.80;;;8.40;60.30;;;;;;2319788;58;21071;-76
2022/04/19 02:50:03;;;;;;;18.73;10.10;;;8.40;60.20;;;;;;2320317;58;21569;-75
2022/04/19 02:52:30;;;;;;;16.02;9.00;;;8.30;60.20;;;;;;2319799;58;21629;-74
2022/04/19 02:54:58;;;;;;;14.73;8.55;;;8.30;59.80;;;;;;2561809;53;21067;-74
2022/04/19 02:57:26;;;;;;;15.40;8.63;;;8.30;59.90;;;;;;2320003;58;21116;-75
2022/04/19 02:59:54;;;;;;;11.93;7.22;;;8.30;59.60;;;;;;2561957;53;21064;-74
2022/04/19 03:02:21;;;;;;;13.65;7.70;;;8.30;59.90;;;;;;2562064;54;21151;-74
2022/04/19 03:04:49;;;;;;;15.55;8.52;;;8.20;59.80;;;;;;2320444;58;21134;-73
2022/04/19 03:07:17;;;;;;;12.77;7.10;;;8.20;59.70;;;;;;2320008;58;21146;-74
2022/04/19 03:09:45;;;;;;;14.00;8.50;;;8.20;60.00;;;;;;2320494;58;21538;-74
2022/04/19 03:12:14;;;;;;;10.50;6.80;;;8.20;60.00;;;;;;2320379;58;21103;-74
2022/04/19 03:14:42;;;;;;;13.52;8.45;;;8.20;60.00;;;;;;2320362;58;21423;-74
2022/04/19 03:17:09;;;;;;;11.57;7.60;;;8.10;60.20;;;;;;2319252;58;21065;-74
2022/04/19 03:19:37;;;;;;;11.50;6.50;;;8.10;60.30;;;;;;2319591;58;21107;-74
2022/04/19 03:22:05;;;;;;;13.62;7.68;;;8.10;60.50;;;;;;2319589;58;21150;-74
2022/04/19 03:30:07;;;;;;;14.60;8.05;;;8.00;60.20;;;;;;2540007;53;21135;-74
2022/04/19 03:32:36;;;;;;;10.43;7.00;;;8.00;60.50;;;;;;2319502;58;21123;-74
2022/04/19 03:35:04;;;;;;;11.45;8.07;;;8.00;60.90;;;;;;2319754;58;21131;-74
2022/04/19 03:37:33;;;;;;;15.38;8.05;;;7.90;61.00;;;;;;2560815;54;21040;-74
2022/04/19 03:40:00;;;;;;;12.68;7.93;;;7.90;61.20;;;;;;2319822;58;21075;-75
2022/04/19 03:42:28;;;;;;;14.00;8.05;;;7.90;61.50;;;;;;2319275;58;21059;-74
2022/04/19 03:44:55;;;;;;;15.07;8.32;;;7.80;61.80;;;;;;2318733;58;21147;-73
2022/04/19 03:47:23;;;;;;;16.60;8.45;;;7.80;62.50;;;;;;2560558;54;21602;-74
2022/04/19 03:49:50;;;;;;;12.73;8.38;;;7.70;63.20;;;;;;2319331;58;21071;-74
2022/04/19 03:52:18;;;;;;;12.15;7.95;;;7.60;63.60;;;;;;2319681;58;21554;-74
2022/04/19 03:54:45;;;;;;;13.25;7.90;;;7.60;64.00;;;;;;2319511;58;21040;-74
2022/04/19 03:57:13;;;;;;;11.95;7.35;;;7.60;64.40;;;;;;2319184;58;21119;-73
2022/04/19 04:02:16;;;;;;;16.10;10.90;;;7.60;64.50;;;;;;2334395;57;38726;-74
2022/04/19 04:04:44;;;;;;;13.52;8.65;;;7.10;66.20;;;;;;2347076;57;21113;-75
2022/04/19 04:07:12;;;;;;;15.27;8.65;;;7.40;65.40;;;;;;2345441;57;21100;-75
2022/04/19 04:09:40;;;;;;;12.90;8.52;;;7.60;64.50;;;;;;2345941;57;21058;-76
2022/04/19 04:12:11;;;;;;;12.80;8.05;;;7.60;64.00;;;;;;2345789;57;21791;-74
2022/04/19 04:14:39;;;;;;;13.25;8.00;;;7.70;63.70;;;;;;2346037;57;21102;-73
2022/04/19 04:17:07;;;;;;;12.88;7.82;;;7.70;63.70;;;;;;2345348;57;21078;-74
2022/04/19 04:19:35;;;;;;;11.12;7.47;;;7.70;63.70;;;;;;2344279;57;21098;-73
2022/04/19 04:22:03;;;;;;;12.15;8.13;;;7.70;63.60;;;;;;2345561;57;21136;-74
2022/04/19 04:24:30;;;;;;;11.32;7.55;;;7.70;63.60;;;;;;2345641;57;21058;-74
2022/04/19 04:26:58;;;;;;;15.85;8.27;;;7.70;63.60;;;;;;2344584;57;21054;-74
2022/04/19 04:29:25;;;;;;;11.43;7.82;;;7.70;63.40;;;;;;2345425;57;22089;-75
2022/04/19 04:31:53;;;;;;;12.45;7.80;;;7.70;63.40;;;;;;2345516;57;21042;-74
2022/04/19 04:34:21;;;;;;;15.93;8.77;;;7.70;63.40;;;;;;2345150;57;21177;-74
2022/04/19 04:36:48;;;;;;;14.68;8.88;;;7.80;64.20;;;;;;2344824;57;21715;-75
2022/04/19 04:39:16;;;;;;;12.05;8.13;;;7.70;63.20;;;;;;2346138;57;21109;-74
2022/04/19 04:41:45;;;;;;;14.20;8.60;;;7.70;63.10;;;;;;2592839;53;21061;-75
2022/04/19 04:44:12;;;;;;;11.32;7.95;;;7.80;63.30;;;;;;2346217;57;21034;-75
2022/04/19 04:49:36;;;;;;;10.60;7.03;;;7.80;63.60;;;;;;2345988;57;21659;-76
2022/04/19 04:52:05;;;;;;;10.73;6.80;;;7.80;63.80;;;;;;2345648;57;21109;-74
2022/04/19 04:54:34;;;;;;;11.70;6.85;;;7.80;64.20;;;;;;2345991;57;21034;-74
2022/04/19 04:57:01;;;;;;;11.48;7.30;;;7.80;64.50;;;;;;2592799;53;21098;-74
2022/04/19 04:59:29;;;;;;;12.10;7.72;;;7.80;64.60;;;;;;2346454;57;21042;-75
2022/04/19 05:01:57;;;;;;;11.88;7.55;;;7.90;64.70;;;;;;2345912;57;21045;-75
2022/04/19 05:04:25;;;;;;;14.07;8.25;;;7.90;64.50;;;;;;2345858;57;21109;-74
2022/04/19 05:06:52;;;;;;;15.18;8.95;;;8.00;64.50;;;;;;2344354;57;21122;-75
2022/04/19 05:09:20;;;;;;;14.90;8.35;;;8.00;64.90;;;;;;2345027;57;21121;-73
2022/04/19 05:11:50;;;;;;;14.75;8.75;;;8.00;65.60;;;;;;2345284;57;21035;-76
2022/04/19 05:14:18;;;;;;;18.42;10.23;;;8.00;66.20;;;;;;2344502;57;21042;-75
2022/04/19 05:16:46;;;;;;;16.12;9.27;;;8.10;66.40;;;;;;2344041;57;21557;-74
2022/04/19 05:19:13;;;;;;;14.18;8.43;;;8.10;66.30;;;;;;2591522;53;21121;-75
2022/04/19 05:21:41;;;;;;;14.77;8.52;;;8.20;66.50;;;;;;2344602;57;21054;-75
2022/04/19 05:24:10;;;;;;;14.85;9.35;;;8.20;66.60;;;;;;2344810;57;21062;-74
2022/04/19 05:26:39;;;;;;;12.95;8.85;;;8.30;67.10;;;;;;2343552;57;21030;-74
2022/04/19 05:29:07;;;;;;;18.80;10.10;;;8.20;67.40;;;;;;2344255;57;21124;-76
2022/04/19 05:31:34;;;;;;;14.77;9.05;;;8.30;67.60;;;;;;2591562;53;21525;-76
2022/04/19 05:34:02;;;;;;;13.30;8.13;;;8.30;67.70;;;;;;2591959;53;21050;-73
2022/04/19 05:36:30;;;;;;;14.68;9.13;;;8.40;67.90;;;;;;2342568;57;21572;-74
2022/04/19 05:38:57;;;;;;;14.73;8.95;;;8.40;68.10;;;;;;2344603;57;21584;-75
2022/04/19 05:41:25;;;;;;;16.60;9.52;;;8.40;68.20;;;;;;2345407;57;21034;-74
2022/04/19 05:43:53;;;;;;;11.38;7.60;;;8.50;68.40;;;;;;2592204;53;21113;-73
2022/04/19 05:46:20;;;;;;;14.05;8.98;;;8.50;68.50;;;;;;2591599;53;21098;-75
2022/04/19 05:48:49;;;;;;;13.30;8.18;;;8.50;68.40;;;;;;2345193;57;21584;-75
2022/04/19 05:51:16;;;;;;;13.30;8.32;;;8.60;68.50;;;;;;2345328;57;21058;-74
2022/04/19 05:53:44;;;;;;;13.73;8.13;;;8.60;68.30;;;;;;2344155;57;21054;-75
2022/04/19 05:56:11;;;;;;;12.02;7.70;;;8.70;68.40;;;;;;2344046;57;21177;-74
2022/04/19 05:58:39;;;;;;;15.32;9.15;;;8.60;68.20;;;;;;2344765;57;21022;-74
2022/04/19 06:01:07;;;;;;;15.98;9.52;;;8.70;68.20;;;;;;2345089;57;21117;-75
2022/04/19 06:06:20;;;;;;;14.63;9.27;;;8.80;68.70;;;;;;2344682;57;21013;-74
2022/04/19 06:08:47;;;;;;;18.73;9.45;;;8.80;67.80;;;;;;2591762;53;21030;-75
2022/04/19 06:11:15;;;;;;;17.05;9.63;;;8.90;68.00;;;;;;2591923;53;21042;-74
2022/04/19 06:13:43;;;;;;;18.35;10.02;;;8.90;68.00;;;;;;2345468;57;21054;-74
2022/04/19 06:16:11;;;;;;;14.75;9.50;;;8.90;67.90;;;;;;2344592;57;21046;-75
2022/04/19 06:18:39;;;;;;;18.62;10.55;;;9.00;68.00;;;;;;2345010;57;21050;-75
2022/04/19 06:21:06;;;;;;;15.38;9.82;;;9.00;68.10;;;;;;2344940;57;21169;-75
2022/04/19 06:23:35;;;;;;;16.27;9.48;;;9.10;68.30;;;;;;2591619;53;21105;-74
2022/04/19 06:26:03;;;;;;;16.85;10.20;;;9.10;68.10;;;;;;2344583;57;21730;-75
2022/04/19 06:28:31;;;;;;;12.48;7.75;;;9.10;68.20;;;;;;2345225;57;21034;-75
2022/04/19 06:30:58;;;;;;;14.60;8.55;;;9.20;68.40;;;;;;2345004;57;21050;-75
2022/04/19 06:33:26;;;;;;;11.30;7.40;;;9.20;68.30;;;;;;2345043;57;21097;-75
2022/04/19 06:35:54;;;;;;;14.55;7.00;;;9.30;68.40;;;;;;2344766;57;21045;-74
2022/04/19 06:38:21;;;;;;;10.65;6.80;;;9.30;68.30;;;;;;2345278;57;21042;-75
2022/04/19 06:40:49;;;;;;;13.27;6.90;;;9.40;67.90;;;;;;2345105;57;21623;-74
2022/04/19 06:43:16;;;;;;;10.00;5.20;;;9.40;67.20;;;;;;2591869;52;21540;-74
2022/04/19 06:45:44;;;;;;;8.20;5.55;;;9.40;66.30;;;;;;2344584;57;21045;-73
2022/04/19 06:48:12;;;;;;;8.38;5.28;;;9.50;66.10;;;;;;2345233;57;21046;-75
2022/04/19 06:53:14;;;;;;;7.28;5.18;;;9.60;65.80;;;;;;2336389;57;28331;-74
2022/04/19 06:55:42;;;;;;;9.85;4.80;;;9.50;66.00;;;;;;2351338;56;21062;-76
2022/04/19 06:58:10;;;;;;;8.35;5.57;;;9.70;65.60;;;;;;2375473;56;21561;-76
2022/04/19 07:00:37;;;;;;;8.68;5.47;;;9.80;65.10;;;;;;2375151;56;21130;-74
2022/04/19 07:03:05;;;;;;;7.43;5.07;;;9.90;64.60;;;;;;2628610;52;21755;-74
2022/04/19 07:05:33;;;;;;;8.18;5.43;;;9.90;64.50;;;;;;2628420;52;21031;-74
2022/04/19 07:08:00;;;;;;;8.90;5.28;;;10.00;64.70;;;;;;2375406;56;21055;-74
2022/04/19 07:10:28;;;;;;;8.93;5.45;;;10.00;64.90;;;;;;2375281;56;21110;-74
2022/04/19 07:12:56;;;;;;;9.52;5.70;;;10.10;64.70;;;;;;2375509;56;21039;-75
2022/04/19 07:15:23;;;;;;;7.47;4.87;;;10.20;64.50;;;;;;2374892;56;21111;-75
2022/04/19 07:17:51;;;;;;;6.90;4.47;;;10.20;64.10;;;;;;2374746;56;21054;-74
2022/04/19 07:28:35;;;;;;;8.25;4.47;;;10.60;63.20;;;;;;2375143;56;21525;-76
2022/04/19 07:31:03;;;;;;;5.60;3.53;;;10.70;62.90;;;;;;2375184;56;22246;-76
2022/04/19 07:33:31;;;;;;;6.78;3.83;;;10.70;62.00;;;;;;2628835;52;21034;-76
2022/04/19 07:35:59;;;;;;;6.62;3.78;;;10.80;61.90;;;;;;2374977;56;21122;-77
2022/04/19 07:38:26;;;;;;;4.40;3.50;;;11.00;60.30;;;;;;2628898;52;21050;-76
2022/04/19 07:40:54;;;;;;;6.45;3.90;;;11.00;59.70;;;;;;2375118;56;21055;-75
2022/04/19 07:43:21;;;;;;;4.95;3.17;;;11.10;59.70;;;;;;2375052;56;21031;-74
2022/04/19 07:45:49;;;;;;;4.75;2.97;;;11.20;58.90;;;;;;2374791;56;21129;-75
2022/04/19 07:48:18;;;;;;;6.15;3.35;;;11.30;58.30;;;;;;2375530;56;21102;-74
2022/04/19 07:50:46;;;;;;;3.70;2.92;;;11.40;57.00;;;;;;2628819;52;21031;-75
2022/04/19 07:53:13;;;;;;;5.87;2.67;;;11.40;57.40;;;;;;2374960;56;21039;-75
2022/04/19 07:55:41;;;;;;;8.55;3.00;;;11.50;57.40;;;;;;2374818;56;21043;-74
2022/04/19 07:58:08;;;;;;;4.65;3.00;;;11.50;57.30;;;;;;2374986;56;21050;-75
2022/04/19 08:00:36;;;;;;;4.05;2.92;;;11.60;57.60;;;;;;2374902;56;21540;-75
2022/04/19 08:03:04;;;;;;;4.72;3.00;;;11.70;57.60;;;;;;2628588;52;21131;-75
2022/04/19 08:05:31;;;;;;;4.30;3.12;;;11.70;57.70;;;;;;2373457;56;21142;-75
2022/04/19 08:07:59;;;;;;;4.47;3.00;;;11.80;57.30;;;;;;2374260;56;21054;-75
2022/04/19 08:10:26;;;;;;;5.68;3.33;;;11.80;57.50;;;;;;2374159;56;21544;-75
2022/04/19 08:12:54;;;;;;;4.82;3.40;;;11.80;57.30;;;;;;2627485;52;21122;-75
2022/04/19 08:15:23;;;;;;;5.47;3.42;;;11.90;57.20;;;;;;2626704;52;21712;-75
2022/04/19 08:17:51;;;;;;;4.97;3.17;;;11.90;57.00;;;;;;2374199;56;21067;-75
2022/04/19 08:20:18;;;;;;;6.35;3.17;;;12.00;57.10;;;;;;2374196;56;21118;-74
2022/04/19 08:22:46;;;;;;;8.90;3.80;;;12.00;57.40;;;;;;2374329;56;21034;-75
2022/04/19 08:25:14;;;;;;;5.60;3.70;;;12.00;57.30;;;;;;2374473;56;21103;-75
2022/04/19 08:27:45;;;;;;;5.20;3.53;;;12.10;57.20;;;;;;2627535;52;21043;-74
2022/04/19 08:30:15;;;;;;;6.53;3.25;;;12.20;57.20;;;;;;2374476;56;21094;-73
2022/04/19 08:32:43;;;;;;;6.62;4.10;;;12.20;57.20;;;;;;2374143;56;21131;-75
2022/04/19 08:35:10;;;;;;;4.78;3.40;;;12.30;57.40;;;;;;2626826;52;21067;-73
2022/04/19 08:37:38;;;;;;;5.30;3.37;;;12.30;57.10;;;;;;2626814;52;21113;-75
2022/04/19 08:40:09;;;;;;;5.87;3.70;;;12.40;57.10;;;;;;2373877;56;21074;-74
2022/04/19 08:42:38;;;;;;;8.10;4.07;;;12.40;57.10;;;;;;2373822;56;21602;-75
2022/04/19 08:45:09;;;;;;;5.62;4.00;;;12.50;57.40;;;;;;2627392;52;21088;-75
2022/04/19 08:47:39;;;;;;;7.25;3.97;;;12.60;57.60;;;;;;2373972;56;21067;-75
2022/04/19 08:50:10;;;;;;;7.03;4.03;;;12.60;56.70;;;;;;2374144;56;21047;-74
2022/04/19 08:52:39;;;;;;;6.12;3.50;;;12.70;55.90;;;;;;2373917;56;21093;-76
2022/04/19 08:57:57;;;;;;;7.30;3.62;;;12.80;55.70;;;;;;2548982;52;21529;-75
2022/04/19 09:00:25;;;;;;;7.18;3.67;;;12.80;54.40;;;;;;2374342;56;21580;-75
2022/04/19 09:02:54;;;;;;;6.12;2.90;;;12.90;54.10;;;;;;2374124;56;21546;-75
2022/04/19 09:05:23;;;;;;;9.38;3.70;;;12.90;54.40;;;;;;2373776;56;21130;-75
2022/04/19 09:07:52;;;;;;;6.50;3.15;;;13.00;54.00;;;;;;2373910;56;21035;-75
2022/04/19 09:10:27;;;;;;;5.05;2.90;;;13.00;53.70;;;;;;2373990;56;21130;-74
2022/04/19 09:13:00;;;;;;;7.87;3.92;;;13.10;54.20;;;;;;2374061;56;21043;-75
2022/04/19 09:15:36;;;;;;;9.07;2.83;;;13.10;55.00;;;;;;2373748;56;21784;-74
2022/04/19 09:18:04;;;;;;;7.53;3.47;;;13.20;54.90;;;;;;2374045;56;21525;-75
2022/04/19 09:20:32;;;;;;;6.75;3.25;;;13.20;55.00;;;;;;2374118;56;21099;-75
2022/04/19 09:23:06;;;;;;;6.07;2.90;;;13.20;55.10;;;;;;2374090;56;21054;-75
2022/04/19 09:25:35;;;;;;;6.70;3.42;;;13.30;54.60;;;;;;2373535;56;22078;-75
2022/04/19 09:28:13;;;;;;;8.05;3.58;;;13.30;54.10;;;;;;2373630;56;21154;-74
2022/04/19 09:30:41;;;;;;;5.68;3.05;;;13.40;53.70;;;;;;2374422;56;21176;-75
2022/04/19 09:33:10;;;;;;;7.12;3.37;;;13.50;53.50;;;;;;2373992;56;21094;-75
2022/04/19 09:35:40;;;;;;;8.20;3.42;;;13.50;53.70;;;;;;2373623;56;21110;-75
2022/04/19 09:38:08;;;;;;;8.65;3.87;;;13.50;53.00;;;;;;2373549;56;21106;-74
2022/04/19 09:40:38;;;;;;;5.50;3.10;;;13.60;53.40;;;;;;2374085;56;21074;-75
2022/04/19 09:43:11;;;;;;;8.43;3.72;;;13.70;53.00;;;;;;2374445;56;21110;-75
2022/04/19 09:45:54;;;;;;;7.60;4.20;;;13.70;53.70;;;;;;2627291;52;21054;-76
2022/04/19 09:48:24;;;;;;;8.23;3.95;;;13.70;53.20;;;;;;2374163;56;21592;-75
2022/04/19 09:50:57;;;;;;;7.22;3.20;;;13.80;52.80;;;;;;2374350;56;21079;-75
2022/04/19 09:53:26;;;;;;;7.25;3.60;;;13.80;52.40;;;;;;2626332;52;21655;-75
2022/04/19 09:55:56;;;;;;;6.12;3.10;;;13.80;52.60;;;;;;2373817;56;21143;-75
2022/04/19 09:58:25;;;;;;;4.75;2.60;;;13.90;52.20;;;;;;2373857;56;21090;-75
2022/04/19 10:00:53;;;;;;;4.57;2.47;;;13.90;52.00;;;;;;2627871;52;21137;-75
2022/04/19 10:08:41;;;;;;;;;;;14.00;51.80;;;;;;2377021;56;21593;-75
2022/04/19 10:11:09;;;;;;;6.72;2.80;;;14.10;51.90;;;;;;2373691;56;20085;-75
2022/04/19 10:13:39;;;;;;;5.45;3.30;;;14.10;51.60;;;;;;2627567;52;21415;-76
2022/04/19 10:16:12;;;;;;;4.53;2.53;;;14.20;51.80;;;;;;2373286;56;21134;-75
2022/04/19 10:18:40;;;;;;;5.23;2.73;;;14.20;52.10;;;;;;2374566;56;21043;-76
2022/04/19 10:21:10;;;;;;;5.57;3.00;;;14.30;51.70;;;;;;2374316;56;21114;-76
2022/04/19 10:23:40;;;;;;;4.85;2.80;;;14.40;51.80;;;;;;2373668;56;21031;-75
2022/04/19 10:26:16;;;;;;;5.07;2.37;;;14.40;51.60;;;;;;2373788;56;21173;-76
2022/04/19 10:28:45;;;;;;;5.07;2.50;;;14.50;51.00;;;;;;2374001;56;21649;-75
2022/04/19 10:31:14;;;;;;;4.07;2.70;;;14.50;51.20;;;;;;2419800;54;21046;-75
2022/04/19 10:33:44;;;;;;;5.22;2.65;;;14.50;50.70;;;;;;2302023;58;21093;-75
2022/04/19 10:36:13;;;;;;;6.80;2.58;;;14.60;50.50;;;;;;2301546;58;21058;-75
2022/04/19 10:38:42;;;;;;;3.33;2.00;;;14.60;50.20;;;;;;2301539;58;21062;-75
2022/04/19 10:41:10;;;;;;;4.97;2.05;;;14.70;50.10;;;;;;2301212;58;21118;-75
2022/04/19 10:43:37;;;;;;;3.58;1.90;;;14.80;50.30;;;;;;2301443;58;21608;-75
2022/04/19 10:46:22;;;;;;;3.75;1.73;;;14.90;49.90;;;;;;2538018;54;21051;-75
2022/04/19 10:49:23;;;;;;;2.00;1.52;;;14.90;49.90;;;;;;2301423;58;21146;-74
2022/04/19 10:51:51;;;;;;;4.03;2.45;;;15.00;49.70;;;;;;2301475;58;21616;-76
2022/04/19 10:55:02;;;;;;;2.55;1.95;;;15.00;49.30;;;;;;2538627;54;21066;-76
2022/04/19 11:00:27;;;;;;;4.03;1.60;;;15.20;49.90;;;;;;2301382;58;21003;-74
2022/04/19 11:03:00;;;;;;;3.15;1.58;;;15.30;49.50;;;;;;2301949;58;21130;-76
2022/04/19 11:05:47;;;;;;;3.40;1.70;;;15.30;49.10;;;;;;2301410;58;21038;-76
2022/04/19 11:08:30;;;;;;;4.35;1.60;;;15.40;48.80;;;;;;2301504;58;21065;-76
2022/04/19 11:11:22;;;;;;;3.67;1.77;;;15.50;48.90;;;;;;2301407;58;21063;-75
2022/04/19 11:14:18;;;;;;;3.67;1.40;;;15.60;47.70;;;;;;2301960;58;21042;-76
2022/04/19 11:16:48;;;;;;;3.47;1.67;;;15.60;46.30;;;;;;2301346;58;21620;-74
2022/04/19 11:19:18;;;;;;;2.75;1.55;;;15.60;47.40;;;;;;2538786;54;21070;-74
2022/04/19 11:21:58;;;;;;;2.65;1.77;;;15.70;47.30;;;;;;2301676;58;21050;-75
2022/04/19 11:24:59;;;;;;;2.12;1.48;;;15.80;46.70;;;;;;2301648;58;21070;-74
2022/04/19 11:28:22;;;;;;;3.33;1.50;;;15.80;46.90;;;;;;2300080;58;21058;-74
2022/04/19 11:31:08;;;;;;;1.73;1.20;;;15.90;46.60;;;;;;2301353;58;21692;-74
2022/04/19 11:33:36;;;;;;;4.18;1.35;;;16.00;45.50;;;;;;2301742;58;21050;-75
2022/04/19 11:36:05;;;;;;;1.73;1.15;;;16.10;45.20;;;;;;2301477;58;21125;-75
2022/04/19 11:38:36;;;;;;;2.42;1.20;;;16.10;45.00;;;;;;2301832;58;21544;-74
2022/04/19 11:46:44;;;;;;;0.98;0.77;;;16.20;41.40;;;;;;2301272;58;21560;-76
2022/04/19 11:49:24;;;;;;;0.90;0.90;;;16.30;43.00;;;;;;2301939;58;21062;-76
2022/04/19 11:51:54;;;;;;;4.25;0.93;;;16.40;41.70;;;;;;2539109;54;21114;-76
2022/04/19 11:54:23;;;;;;;1.35;0.82;;;16.40;42.00;;;;;;2539461;54;21043;-75
2022/04/19 11:56:52;;;;;;;0.85;0.80;;;16.50;41.90;;;;;;2301357;58;21126;-76
2022/04/19 11:59:26;;;;;;;1.20;1.10;;;16.50;42.00;;;;;;2301621;58;21400;-76
2022/04/19 12:01:54;;;;;;;1.17;0.73;;;16.60;40.20;;;;;;2300741;58;21617;-76
2022/04/19 12:04:22;;;;;;;1.48;1.00;;;16.60;40.10;;;;;;2301633;58;21138;-75
2022/04/19 12:06:53;;;;;;;2.75;1.25;;;16.70;41.00;;;;;;2301351;58;21654;-75
2022/04/19 12:09:21;;;;;;;0.80;0.80;;;16.80;40.30;;;;;;2301283;58;21636;-75
2022/04/19 12:11:50;;;;;;;1.30;1.20;;;16.80;39.50;;;;;;2539078;54;21055;-75
2022/04/19 12:14:29;;;;;;;2.20;0.80;;;16.80;39.10;;;;;;2301667;58;21063;-75
2022/04/19 12:16:59;;;;;;;1.20;0.90;;;16.90;40.10;;;;;;2301402;58;21050;-74
2022/04/19 12:19:40;;;;;;;3.17;1.12;;;17.00;38.20;;;;;;2301928;58;21110;-74
2022/04/19 12:22:19;;;;;;;0.95;0.75;;;17.00;36.20;;;;;;2538961;54;21071;-75
2022/04/19 12:24:50;;;;;;;1.00;0.90;;;17.00;37.50;;;;;;2301448;58;21062;-76
2022/04/19 12:27:24;;;;;;;1.70;0.80;;;17.00;36.80;;;;;;2301366;58;21559;-76
2022/04/19 12:30:03;;;;;;;1.35;0.70;;;17.10;36.20;;;;;;2301775;58;21079;-75
2022/04/19 12:32:50;;;;;;;3.62;1.23;;;17.10;36.20;;;;;;2301440;58;21209;-74
2022/04/19 12:35:18;;;;;;;1.00;0.90;;;17.20;37.00;;;;;;2538580;54;21067;-74
2022/04/19 12:38:03;;;;;;;6.70;1.37;;;17.20;36.80;;;;;;2301680;58;21121;-73
2022/04/19 12:40:31;;;;;;;1.10;0.75;;;17.20;35.70;;;;;;2301224;58;21138;-75
2022/04/19 12:42:58;;;;;;;0.95;0.80;;;17.30;35.60;;;;;;2301694;58;21604;-73
2022/04/19 12:45:31;;;;;;;2.10;0.95;;;17.30;34.80;;;;;;2301055;58;21392;-74
2022/04/19 12:48:00;;;;;;;1.55;0.93;;;17.40;34.50;;;;;;2301863;58;21150;-76
2022/04/19 12:50:28;;;;;;;1.98;1.17;;;17.40;35.60;;;;;;2301474;58;21540;-74
2022/04/19 12:52:56;;;;;;;1.90;1.00;;;17.40;35.00;;;;;;2301489;58;21074;-74
2022/04/19 12:55:29;;;;;;;2.85;1.40;;;17.50;35.80;;;;;;2301331;58;21090;-74
2022/04/19 12:58:08;;;;;;;2.42;1.25;;;17.40;35.30;;;;;;2539173;54;21031;-73
2022/04/19 13:00:36;;;;;;;2.78;1.65;;;17.50;35.10;;;;;;2301612;58;21130;-74
2022/04/19 13:03:05;;;;;;;2.55;1.98;;;17.50;35.60;;;;;;2301685;58;21070;-76
2022/04/19 13:13:51;;;;;;;2.67;1.75;;;17.60;35.40;;;;;;2301361;58;21086;-75
2022/04/19 13:16:18;;;;;;;1.80;1.55;;;17.60;35.90;;;;;;2300570;58;21118;-74
2022/04/19 13:18:46;;;;;;;2.53;1.80;;;17.60;35.80;;;;;;2301561;58;21062;-74
2022/04/19 13:21:13;;;;;;;4.00;1.70;;;17.60;35.80;;;;;;2301350;58;21074;-75
2022/04/19 13:23:41;;;;;;;2.25;2.05;;;17.60;36.60;;;;;;2301820;58;21054;-74
2022/04/19 13:26:09;;;;;;;3.33;2.12;;;17.70;36.90;;;;;;2301251;58;21078;-74
2022/04/19 13:28:37;;;;;;;4.95;1.98;;;17.70;36.50;;;;;;2301421;58;21046;-73
2022/04/19 13:31:05;;;;;;;3.58;2.37;;;17.70;36.90;;;;;;2538942;54;21050;-75
2022/04/19 13:33:32;;;;;;;3.62;2.40;;;17.70;37.60;;;;;;2301397;58;21576;-75
2022/04/19 13:36:00;;;;;;;5.25;2.28;;;17.70;38.10;;;;;;2301143;58;21459;-74
2022/04/19 13:38:32;;;;;;;3.85;2.60;;;17.80;38.00;;;;;;2301024;58;21066;-75
2022/04/19 13:41:00;;;;;;;4.78;3.08;;;17.70;38.50;;;;;;2301401;58;21122;-74
2022/04/19 13:43:27;;;;;;;11.15;2.85;;;17.70;38.30;;;;;;2301500;58;21064;-74
2022/04/19 13:45:55;;;;;;;4.22;2.80;;;17.70;38.20;;;;;;2301113;58;21544;-74
2022/04/19 13:48:22;;;;;;;4.28;2.50;;;17.70;38.90;;;;;;2301401;58;21141;-74
2022/04/19 13:50:51;;;;;;;7.28;2.67;;;17.70;39.30;;;;;;2301733;58;21046;-74
2022/04/19 13:53:19;;;;;;;6.25;3.15;;;17.70;39.50;;;;;;2301439;58;21066;-75
2022/04/19 13:55:47;;;;;;;6.45;3.00;;;17.70;39.90;;;;;;2301100;58;21126;-74